createdAt,value
2018-07-07T00:01:23.495Z,98274.34
2018-07-07T00:03:52.206Z,98275.47
2018-07-07T00:06:20.814Z,98278.44
2018-07-07T00:08:49.440Z,98276.20
2018-07-07T00:11:18.084Z,98280.48
2018-07-07T00:13:47.432Z,98281.28
2018-07-07T00:16:16.131Z,98278.20
2018-07-07T00:18:44.903Z,98278.56
2018-07-07T00:21:13.474Z,98278.25
2018-07-07T00:23:42.352Z,98277.02
2018-07-07T00:26:11.550Z,98272.45
2018-07-07T00:28:41.198Z,98273.61
2018-07-07T00:31:10.628Z,98272.41
2018-07-07T00:33:39.190Z,98270.25
2018-07-07T00:36:08.187Z,98269.40
2018-07-07T00:38:37.419Z,98271.05
2018-07-07T00:41:06.234Z,98275.92
2018-07-07T00:43:34.970Z,98271.69
2018-07-07T00:46:03.689Z,98269.92
2018-07-07T00:48:32.245Z,98272.08
2018-07-07T00:51:01.086Z,98270.41
2018-07-07T00:53:29.755Z,98266.41
2018-07-07T00:55:58.363Z,98274.40
2018-07-07T00:58:28.399Z,98272.97
2018-07-07T01:00:57.023Z,98273.05
2018-07-07T01:03:25.633Z,98282.88
2018-07-07T01:05:54.492Z,98276.67
2018-07-07T01:08:23.375Z,98276.75
2018-07-07T01:10:52.015Z,98278.73
2018-07-07T01:13:20.882Z,98284.97
2018-07-07T01:15:49.463Z,98281.29
2018-07-07T01:18:18.464Z,98284.25
2018-07-07T01:20:47.459Z,98287.44
2018-07-07T01:23:16.104Z,98288.48
2018-07-07T01:25:44.768Z,98293.44
2018-07-07T01:28:13.329Z,98289.12
2018-07-07T01:30:42.367Z,98294.65
2018-07-07T01:33:10.953Z,98283.60
2018-07-07T01:35:40.367Z,98288.73
2018-07-07T01:38:09.829Z,98288.66
2018-07-07T01:40:39.948Z,98296.27
2018-07-07T01:43:08.589Z,98294.81
2018-07-07T01:45:37.231Z,98291.36
2018-07-07T01:48:06.213Z,98290.31
2018-07-07T01:50:35.246Z,98287.67
2018-07-07T01:53:04.500Z,98286.17
2018-07-07T01:55:33.281Z,98288.41
2018-07-07T01:58:03.650Z,98290.95
2018-07-07T02:00:33.018Z,98287.27
2018-07-07T02:03:02.329Z,98289.57
2018-07-07T02:05:32.617Z,98287.41
2018-07-07T02:08:01.934Z,98291.83
2018-07-07T02:10:31.839Z,98290.30
2018-07-07T02:13:01.325Z,98295.98
2018-07-07T02:15:32.024Z,98296.30
2018-07-07T02:18:00.636Z,98301.17
2018-07-07T02:20:29.206Z,98297.17
2018-07-07T02:22:57.808Z,98292.95
2018-07-07T02:25:26.405Z,98303.89
2018-07-07T02:27:55.055Z,98297.86
2018-07-07T02:30:24.506Z,98298.25
2018-07-07T02:32:53.964Z,98300.64
2018-07-07T02:35:22.582Z,98300.78
2018-07-07T02:37:51.444Z,98306.14
2018-07-07T02:40:20.038Z,98310.22
2018-07-07T02:42:48.726Z,98312.20
2018-07-07T02:45:17.415Z,98311.64
2018-07-07T02:47:46.227Z,98310.73
2018-07-07T02:50:14.888Z,98311.61
2018-07-07T02:52:44.367Z,98313.27
2018-07-07T02:55:12.937Z,98311.80
2018-07-07T02:57:41.551Z,98314.03
2018-07-07T03:00:10.212Z,98314.20
2018-07-07T03:02:38.772Z,98319.70
2018-07-07T03:05:09.078Z,98328.08
2018-07-07T03:07:37.963Z,98320.86
2018-07-07T03:10:06.785Z,98322.89
2018-07-07T03:12:36.106Z,98333.10
2018-07-07T03:15:04.887Z,98330.25
2018-07-07T03:17:33.949Z,98334.88
2018-07-07T03:20:02.647Z,98335.75
2018-07-07T03:22:31.243Z,98341.41
2018-07-07T03:24:59.873Z,98340.55
2018-07-07T03:27:29.326Z,98341.28
2018-07-07T03:29:58.879Z,98341.78
2018-07-07T03:32:28.720Z,98343.50
2018-07-07T03:34:57.545Z,98339.44
2018-07-07T03:37:27.387Z,98344.92
2018-07-07T03:39:57.317Z,98341.10
2018-07-07T03:42:28.263Z,98345.11
2018-07-07T03:44:57.328Z,98344.12
2018-07-07T03:47:26.037Z,98349.64
2018-07-07T03:49:54.594Z,98350.20
2018-07-07T03:52:24.027Z,98350.50
2018-07-07T03:54:52.609Z,98354.42
2018-07-07T03:57:21.855Z,98349.42
2018-07-07T03:59:50.483Z,98342.64
2018-07-07T04:02:19.209Z,98353.38
2018-07-07T04:04:48.499Z,98352.20
2018-07-07T04:07:17.780Z,98349.95
2018-07-07T04:09:46.750Z,98351.16
2018-07-07T04:12:16.230Z,98354.11
2018-07-07T04:14:45.351Z,98351.64
2018-07-07T04:17:15.433Z,98351.16
2018-07-07T04:19:44.379Z,98345.81
2018-07-07T04:22:13.274Z,98343.96
2018-07-07T04:24:42.598Z,98350.62
2018-07-07T04:27:11.177Z,98335.84
2018-07-07T04:29:39.822Z,98345.95
2018-07-07T04:32:08.641Z,98337.73
2018-07-07T04:34:37.490Z,98341.72
2018-07-07T04:37:06.696Z,98345.97
2018-07-07T04:39:35.313Z,98339.77
2018-07-07T04:42:03.958Z,98344.83
2018-07-07T04:44:32.719Z,98340.02
2018-07-07T04:47:02.186Z,98337.89
2018-07-07T04:49:30.766Z,98342.84
2018-07-07T04:51:59.395Z,98340.36
2018-07-07T04:54:28.000Z,98343.81
2018-07-07T04:56:56.631Z,98344.61
2018-07-07T04:59:25.888Z,98344.47
2018-07-07T05:01:54.613Z,98343.19
2018-07-07T05:04:24.347Z,98344.23
2018-07-07T05:06:53.459Z,98350.39
2018-07-07T05:09:22.177Z,98350.85
2018-07-07T05:11:50.818Z,98348.86
2018-07-07T05:14:19.399Z,98354.87
2018-07-07T05:16:51.380Z,98352.78
2018-07-07T05:19:21.617Z,98353.20
2018-07-07T05:21:50.734Z,98353.27
2018-07-07T05:24:19.483Z,98354.25
2018-07-07T05:26:49.564Z,98349.70
2018-07-07T05:29:18.429Z,98352.52
2018-07-07T05:31:47.382Z,98351.93
2018-07-07T05:34:16.307Z,98355.70
2018-07-07T05:36:44.989Z,98354.23
2018-07-07T05:39:14.024Z,98348.44
2018-07-07T05:41:42.837Z,98351.15
2018-07-07T05:44:11.639Z,98350.19
2018-07-07T05:46:40.677Z,98353.43
2018-07-07T05:49:09.932Z,98352.38
2018-07-07T05:51:38.627Z,98354.63
2018-07-07T05:54:07.432Z,98352.14
2018-07-07T05:56:36.128Z,98358.10
2018-07-07T05:59:06.019Z,98357.80
2018-07-07T06:01:34.736Z,98358.95
2018-07-07T06:04:03.781Z,98359.26
2018-07-07T06:06:32.461Z,98354.76
2018-07-07T06:09:02.449Z,98354.11
2018-07-07T06:11:31.505Z,98355.00
2018-07-07T06:14:00.152Z,98363.17
2018-07-07T06:16:28.861Z,98349.45
2018-07-07T06:18:57.686Z,98352.03
2018-07-07T06:21:27.424Z,98357.09
2018-07-07T06:23:57.281Z,98353.56
2018-07-07T06:26:26.024Z,98359.03
2018-07-07T06:28:54.752Z,98356.06
2018-07-07T06:31:23.453Z,98356.45
2018-07-07T06:33:52.105Z,98362.86
2018-07-07T06:36:21.728Z,98359.00
2018-07-07T06:38:50.329Z,98363.28
2018-07-07T06:41:18.925Z,98366.65
2018-07-07T06:43:47.634Z,98361.33
2018-07-07T06:46:16.205Z,98364.86
2018-07-07T06:48:44.938Z,98365.79
2018-07-07T06:51:13.583Z,98366.48
2018-07-07T06:53:42.560Z,98363.37
2018-07-07T06:56:11.686Z,98362.83
2018-07-07T06:58:40.364Z,98363.56
2018-07-07T07:01:09.207Z,98364.36
2018-07-07T07:03:37.790Z,98368.12
2018-07-07T07:06:08.763Z,98359.80
2018-07-07T07:08:37.465Z,98367.11
2018-07-07T07:11:06.214Z,98362.52
2018-07-07T07:13:34.968Z,98360.23
2018-07-07T07:16:03.652Z,98368.68
2018-07-07T07:18:32.258Z,98370.80
2018-07-07T07:21:00.892Z,98366.31
2018-07-07T07:23:29.724Z,98361.98
2018-07-07T07:25:58.539Z,98357.84
2018-07-07T07:28:27.148Z,98366.39
2018-07-07T07:30:56.383Z,98363.68
2018-07-07T07:33:25.333Z,98358.55
2018-07-07T07:35:54.849Z,98364.03
2018-07-07T07:38:23.701Z,98357.08
2018-07-07T07:40:52.360Z,98359.25
2018-07-07T07:43:21.892Z,98351.02
2018-07-07T07:45:50.928Z,98349.39
2018-07-07T07:48:19.681Z,98348.41
2018-07-07T07:50:48.316Z,98353.98
2018-07-07T07:53:17.092Z,98346.23
2018-07-07T07:55:45.716Z,98349.10
2018-07-07T07:58:15.390Z,98341.34
2018-07-07T08:00:44.034Z,98344.58
2018-07-07T08:03:13.048Z,98342.47
2018-07-07T08:05:41.656Z,98336.45
2018-07-07T08:08:10.320Z,98343.52
2018-07-07T08:10:38.907Z,98339.08
2018-07-07T08:13:07.523Z,98339.76
2018-07-07T08:15:37.095Z,98338.80
2018-07-07T08:18:06.078Z,98342.93
2018-07-07T08:20:34.922Z,98338.39
2018-07-07T08:23:03.898Z,98336.84
2018-07-07T08:25:32.673Z,98335.55
2018-07-07T08:28:01.291Z,98344.34
2018-07-07T08:30:29.947Z,98337.54
2018-07-07T08:32:58.540Z,98338.64
2018-07-07T08:35:27.597Z,98330.19
2018-07-07T08:37:56.320Z,98337.57
2018-07-07T08:40:24.985Z,98339.75
2018-07-07T08:42:53.629Z,98337.88
2018-07-07T08:45:22.299Z,98336.43
2018-07-07T08:47:51.108Z,98336.42
2018-07-07T08:50:19.966Z,98337.84
2018-07-07T08:52:48.714Z,98334.95
2018-07-07T08:55:17.466Z,98339.59
2018-07-07T08:57:46.441Z,98337.68
2018-07-07T09:00:18.223Z,98340.24
2018-07-07T09:02:47.047Z,98338.64
2018-07-07T09:05:15.962Z,98332.41
2018-07-07T09:07:44.553Z,98335.20
2018-07-07T09:10:13.229Z,98339.27
2018-07-07T09:12:41.897Z,98325.13
2018-07-07T09:15:10.529Z,98320.78
2018-07-07T09:17:39.192Z,98325.19
2018-07-07T09:20:09.151Z,98320.45
2018-07-07T09:22:38.630Z,98318.68
2018-07-07T09:25:07.298Z,98320.16
2018-07-07T09:27:35.928Z,98315.92
2018-07-07T09:30:05.068Z,98319.48
2018-07-07T09:32:33.829Z,98320.49
2018-07-07T09:35:03.089Z,98328.80
2018-07-07T09:37:34.452Z,98328.49
2018-07-07T09:40:03.801Z,98324.09
2018-07-07T09:42:34.109Z,98326.02
2018-07-07T09:45:03.471Z,98325.58
2018-07-07T09:47:32.360Z,98318.10
2018-07-07T09:50:01.067Z,98319.87
2018-07-07T09:52:30.688Z,98326.76
2018-07-07T09:54:59.388Z,98321.12
2018-07-07T09:57:29.902Z,98322.38
2018-07-07T10:00:00.219Z,98328.59
2018-07-07T10:02:28.996Z,98323.70
2018-07-07T10:04:59.321Z,98328.11
2018-07-07T10:07:28.105Z,98318.36
2018-07-07T10:09:56.848Z,98320.92
2018-07-07T10:12:25.633Z,98322.88
2018-07-07T10:14:54.442Z,98324.64
2018-07-07T10:17:24.140Z,98324.30
2018-07-07T10:19:53.636Z,98325.16
2018-07-07T10:22:22.305Z,98323.56
2018-07-07T10:24:51.012Z,98323.56
2018-07-07T10:27:19.665Z,98319.44
2018-07-07T10:29:48.647Z,98318.59
2018-07-07T10:32:17.367Z,98328.08
2018-07-07T10:34:46.084Z,98328.28
2018-07-07T10:37:15.810Z,98314.45
2018-07-07T10:39:48.195Z,98317.77
2018-07-07T10:42:18.455Z,98312.37
2018-07-07T10:44:49.202Z,98310.80
2018-07-07T10:47:17.956Z,98309.77
2018-07-07T10:49:47.885Z,98304.00
2018-07-07T10:52:22.544Z,98301.70
2018-07-07T10:54:52.920Z,98296.06
2018-07-07T10:57:23.329Z,98298.00
2018-07-07T10:59:53.357Z,98296.85
2018-07-07T11:02:24.391Z,98300.72
2018-07-07T11:04:54.717Z,98296.28
2018-07-07T11:07:24.812Z,98295.78
2018-07-07T11:09:56.945Z,98291.05
2018-07-07T11:12:28.299Z,98295.30
2018-07-07T11:14:57.547Z,98298.48
2018-07-07T11:17:26.209Z,98292.92
2018-07-07T11:19:54.940Z,98294.06
2018-07-07T11:22:23.841Z,98288.70
2018-07-07T11:24:53.270Z,98284.70
2018-07-07T11:27:21.937Z,98278.43
2018-07-07T11:29:52.521Z,98280.55
2018-07-07T11:32:21.301Z,98277.80
2018-07-07T11:34:50.019Z,98283.15
2018-07-07T11:37:19.155Z,98286.55
2018-07-07T11:39:47.801Z,98294.19
2018-07-07T11:42:16.487Z,98290.25
2018-07-07T11:44:46.653Z,98281.64
2018-07-07T11:47:17.201Z,98280.92
2018-07-07T11:49:45.881Z,98283.28
2018-07-07T11:52:15.313Z,98285.03
2018-07-07T11:54:44.977Z,98287.25
2018-07-07T11:57:16.324Z,98277.91
2018-07-07T11:59:47.042Z,98281.95
2018-07-07T12:02:16.034Z,98279.27
2018-07-07T12:04:44.779Z,98269.72
2018-07-07T12:07:13.447Z,98270.16
2018-07-07T12:09:43.044Z,98272.86
2018-07-07T12:12:12.818Z,98267.36
2018-07-07T12:14:41.548Z,98266.28
2018-07-07T12:17:13.888Z,98266.88
2018-07-07T12:19:43.567Z,98255.64
2018-07-07T12:22:14.039Z,98255.98
2018-07-07T12:24:44.481Z,98257.41
2018-07-07T12:27:13.299Z,98256.68
2018-07-07T12:29:41.998Z,98261.78
2018-07-07T12:32:10.996Z,98258.20
2018-07-07T12:34:39.691Z,98250.16
2018-07-07T12:37:08.569Z,98247.02
2018-07-07T12:39:37.633Z,98248.27
2018-07-07T12:42:06.326Z,98248.58
2018-07-07T12:44:35.024Z,98244.70
2018-07-07T12:47:04.162Z,98242.22
2018-07-07T12:49:33.536Z,98241.25
2018-07-07T12:52:02.482Z,98245.35
2018-07-07T12:54:31.059Z,98249.84
2018-07-07T12:56:59.841Z,98250.20
2018-07-07T12:59:28.923Z,98251.69
2018-07-07T13:01:58.081Z,98247.22
2018-07-07T13:04:26.747Z,98243.30
2018-07-07T13:06:55.525Z,98243.50
2018-07-07T13:09:25.345Z,98233.89
2018-07-07T13:11:54.084Z,98227.16
2018-07-07T13:14:22.838Z,98235.89
2018-07-07T13:16:51.695Z,98232.45
2018-07-07T13:19:20.828Z,98236.44
2018-07-07T13:21:49.984Z,98233.83
2018-07-07T13:24:19.328Z,98231.16
2018-07-07T13:26:48.906Z,98232.07
2018-07-07T13:29:18.302Z,98230.66
2018-07-07T13:31:46.936Z,98232.41
2018-07-07T13:34:16.234Z,98235.42
2018-07-07T13:36:45.525Z,98234.79
2018-07-07T13:39:14.381Z,98236.78
2018-07-07T13:41:43.015Z,98226.58
2018-07-07T13:44:11.754Z,98224.84
2018-07-07T13:46:40.477Z,98219.91
2018-07-07T13:49:09.258Z,98223.14
2018-07-07T13:51:38.262Z,98221.12
2018-07-07T13:54:07.217Z,98214.51
2018-07-07T13:56:36.306Z,98221.12
2018-07-07T13:59:05.006Z,98216.78
2018-07-07T14:01:33.843Z,98215.33
2018-07-07T14:04:02.470Z,98213.52
2018-07-07T14:06:31.726Z,98217.99
2018-07-07T14:09:00.440Z,98208.80
2018-07-07T14:11:29.636Z,98211.01
2018-07-07T14:13:58.295Z,98208.98
2018-07-07T14:16:27.524Z,98209.78
2018-07-07T14:18:56.390Z,98204.72
2018-07-07T14:21:25.010Z,98214.14
2018-07-07T14:23:53.668Z,98210.84
2018-07-07T14:26:22.385Z,98210.72
2018-07-07T14:28:51.060Z,98204.34
2018-07-07T14:31:19.758Z,98199.25
2018-07-07T14:33:48.626Z,98207.66
2018-07-07T14:36:17.269Z,98202.85
2018-07-07T14:38:45.923Z,98205.60
2018-07-07T14:41:17.550Z,98205.66
2018-07-07T14:44:01.098Z,98203.58
2018-07-07T14:46:30.360Z,98199.42
2018-07-07T14:48:59.017Z,98196.52
2018-07-07T14:51:27.895Z,98197.68
2018-07-07T14:53:56.915Z,98195.25
2018-07-07T14:56:26.530Z,98199.30
2018-07-07T14:58:56.087Z,98191.47
2018-07-07T15:01:24.741Z,98194.72
2018-07-07T15:03:53.444Z,98200.17
2018-07-07T15:06:23.086Z,98192.25
2018-07-07T15:08:51.832Z,98196.36
2018-07-07T15:11:20.966Z,98196.36
2018-07-07T15:13:49.785Z,98191.88
2018-07-07T15:16:18.447Z,98193.55
2018-07-07T15:18:47.607Z,98182.42
2018-07-07T15:21:16.429Z,98193.61
2018-07-07T15:23:45.171Z,98185.98
2018-07-07T15:26:13.871Z,98185.64
2018-07-07T15:28:42.549Z,98179.99
2018-07-07T15:31:11.813Z,98182.41
2018-07-07T15:33:40.471Z,98180.00
2018-07-07T15:36:09.193Z,98181.31
2018-07-07T15:38:38.336Z,98181.70
2018-07-07T15:41:07.104Z,98169.44
2018-07-07T15:43:36.351Z,98174.77
2018-07-07T15:46:05.136Z,98167.27
2018-07-07T15:48:33.801Z,98162.64
2018-07-07T15:51:02.661Z,98168.13
2018-07-07T15:53:31.302Z,98164.05
2018-07-07T15:55:59.925Z,98169.15
2018-07-07T15:58:28.538Z,98160.97
2018-07-07T16:00:57.171Z,98168.72
2018-07-07T16:03:26.122Z,98164.22
2018-07-07T16:05:55.026Z,98162.28
2018-07-07T16:08:23.637Z,98163.07
2018-07-07T16:10:52.297Z,98160.11
2018-07-07T16:13:20.851Z,98161.51
2018-07-07T16:15:49.481Z,98162.52
2018-07-07T16:18:18.082Z,98155.98
2018-07-07T16:20:46.702Z,98155.00
2018-07-07T16:23:15.968Z,98159.36
2018-07-07T16:25:44.637Z,98154.41
2018-07-07T16:28:13.485Z,98153.61
2018-07-07T16:30:42.191Z,98145.89
2018-07-07T16:33:11.097Z,98145.14
2018-07-07T16:35:39.781Z,98148.42
2018-07-07T16:38:09.642Z,98115.85
2018-07-07T16:40:38.661Z,98145.50
2018-07-07T16:43:07.631Z,98143.34
2018-07-07T16:45:36.403Z,98140.56
2018-07-07T16:48:05.507Z,98144.69
2018-07-07T16:50:34.137Z,98141.70
2018-07-07T16:53:02.811Z,98138.50
2018-07-07T16:55:31.504Z,98140.26
2018-07-07T16:58:00.876Z,98138.67
2018-07-07T17:00:29.617Z,98143.53
2018-07-07T17:02:58.740Z,98145.25
2018-07-07T17:05:27.574Z,98143.63
2018-07-07T17:07:56.344Z,98147.81
2018-07-07T17:10:25.153Z,98138.36
2018-07-07T17:12:53.985Z,98139.39
2018-07-07T17:15:22.902Z,98134.16
2018-07-07T17:17:52.311Z,98137.78
2018-07-07T17:20:21.036Z,98135.62
2018-07-07T17:22:50.505Z,98139.59
2018-07-07T17:25:19.268Z,98135.80
2018-07-07T17:27:48.511Z,98135.41
2018-07-07T17:30:17.485Z,98136.32
2018-07-07T17:32:46.193Z,98146.94
2018-07-07T17:35:15.241Z,98147.43
2018-07-07T17:37:43.985Z,98149.86
2018-07-07T17:40:13.293Z,98141.03
2018-07-07T17:42:42.006Z,98140.20
2018-07-07T17:45:10.731Z,98144.96
2018-07-07T17:47:39.437Z,98149.68
2018-07-07T17:50:08.062Z,98145.75
2018-07-07T17:52:37.074Z,98147.68
2018-07-07T17:55:07.920Z,98146.33
2018-07-07T17:57:37.744Z,98141.84
2018-07-07T18:00:07.586Z,98139.23
2018-07-07T18:02:36.260Z,98141.91
2018-07-07T18:05:04.965Z,98141.30
2018-07-07T18:07:33.624Z,98137.54
2018-07-07T18:10:02.266Z,98141.64
2018-07-07T18:12:31.759Z,98145.33
2018-07-07T18:15:00.419Z,98144.95
2018-07-07T18:17:29.206Z,98148.67
2018-07-07T18:19:57.978Z,98147.55
2018-07-07T18:22:27.520Z,98138.74
2018-07-07T18:24:56.346Z,98145.14
2018-07-07T18:27:25.071Z,98146.17
2018-07-07T18:29:54.131Z,98146.01
2018-07-07T18:32:23.125Z,98151.31
2018-07-07T18:34:51.732Z,98153.94
2018-07-07T18:37:20.427Z,98150.70
2018-07-07T18:39:55.268Z,98154.25
2018-07-07T18:42:23.878Z,98152.83
2018-07-07T18:44:52.581Z,98152.46
2018-07-07T18:47:21.589Z,98160.27
2018-07-07T18:49:50.310Z,98154.09
2018-07-07T18:52:18.957Z,98159.47
2018-07-07T18:54:47.993Z,98152.92
2018-07-07T18:57:16.636Z,98158.39
2018-07-07T18:59:45.365Z,98157.47
2018-07-07T19:02:13.968Z,98161.39
2018-07-07T19:04:42.633Z,98159.77
2018-07-07T19:07:11.267Z,98167.52
2018-07-07T19:09:39.968Z,98162.50
2018-07-07T19:12:09.033Z,98160.16
2018-07-07T19:14:38.118Z,98158.83
2018-07-07T19:17:07.204Z,98161.06
2018-07-07T19:19:35.891Z,98172.22
2018-07-07T19:22:09.955Z,98169.94
2018-07-07T19:24:43.967Z,98165.92
2018-07-07T19:27:12.640Z,98170.20
2018-07-07T19:29:41.370Z,98170.89
2018-07-07T19:32:15.177Z,98169.36
2018-07-07T19:34:48.855Z,98178.47
2018-07-07T19:37:20.435Z,98177.19
2018-07-07T19:39:49.531Z,98179.15
2018-07-07T19:42:18.535Z,98182.03
2018-07-07T19:44:47.190Z,98191.50
2018-07-07T19:47:15.881Z,98189.37
2018-07-07T19:49:44.694Z,98205.54
2018-07-07T19:52:13.403Z,98199.22
2018-07-07T19:54:42.160Z,98195.70
2018-07-07T19:57:10.909Z,98199.09
2018-07-07T19:59:39.601Z,98195.91
2018-07-07T20:02:08.334Z,98189.98
2018-07-07T20:04:37.262Z,98198.45
2018-07-07T20:07:05.986Z,98192.89
2018-07-07T20:09:34.675Z,98197.23
2018-07-07T20:12:03.684Z,98194.17
2018-07-07T20:14:32.586Z,98188.61
2018-07-07T20:17:03.848Z,98193.00
2018-07-07T20:20:43.192Z,98189.98
2018-07-07T20:23:13.160Z,98190.80
2018-07-07T20:25:42.133Z,98191.03
2018-07-07T20:28:15.881Z,98195.91
2018-07-07T20:30:45.283Z,98198.37
2018-07-07T20:33:14.049Z,98197.94
2018-07-07T20:35:42.865Z,98194.69
2018-07-07T20:38:11.486Z,98197.47
2018-07-07T20:40:40.292Z,98197.83
2018-07-07T20:43:09.341Z,98192.69
2018-07-07T20:45:38.003Z,98196.52
2018-07-07T20:48:06.663Z,98191.34
2018-07-07T20:50:35.362Z,98195.17
2018-07-07T20:53:04.164Z,98194.61
2018-07-07T20:55:32.864Z,98195.02
2018-07-07T20:58:01.649Z,98199.09
2018-07-07T21:00:30.327Z,98201.87
2018-07-07T21:02:59.516Z,98196.73
2018-07-07T21:05:28.160Z,98193.70
2018-07-07T21:07:56.999Z,98190.33
2018-07-07T21:10:26.097Z,98193.65
2018-07-07T21:12:54.782Z,98193.44
2018-07-07T21:15:25.119Z,98196.02
2018-07-07T21:17:54.142Z,98200.55
2018-07-07T21:20:22.807Z,98205.09
2018-07-07T21:22:51.686Z,98204.53
2018-07-07T21:25:20.680Z,98209.05
2018-07-07T21:27:49.470Z,98210.29
2018-07-07T21:30:18.331Z,98206.83
2018-07-07T21:32:47.153Z,98213.16
2018-07-07T21:35:15.838Z,98199.94
2018-07-07T21:37:45.422Z,98205.64
2018-07-07T21:40:14.576Z,98203.83
2018-07-07T21:42:43.287Z,98203.30
2018-07-07T21:45:11.969Z,98197.23
2018-07-07T21:47:40.648Z,98198.93
2018-07-07T21:50:10.823Z,98202.95
2018-07-07T21:52:39.523Z,98201.97
2018-07-07T21:55:08.537Z,98202.72
2018-07-07T21:57:42.559Z,98199.09
2018-07-07T22:00:14.923Z,98200.40
2018-07-07T22:02:48.833Z,98198.94
2018-07-07T22:05:22.794Z,98204.42
2018-07-07T22:07:52.063Z,98198.36
2018-07-07T22:10:21.133Z,98200.98
2018-07-07T22:12:54.081Z,98202.25
2018-07-07T22:15:22.706Z,98209.49
2018-07-07T22:17:51.327Z,98205.45
2018-07-07T22:20:29.562Z,98202.39
2018-07-07T22:22:58.172Z,98196.25
2018-07-07T22:25:26.849Z,98195.13
2018-07-07T22:27:56.152Z,98197.23
2018-07-07T22:30:24.844Z,98195.20
2018-07-07T22:32:57.608Z,98196.69
2018-07-07T22:35:31.534Z,98194.20
2018-07-07T22:38:00.322Z,98194.61
2018-07-07T22:40:30.268Z,98191.42
2018-07-07T22:42:58.897Z,98193.59
2018-07-07T22:45:28.259Z,98193.48
2018-07-07T22:47:56.915Z,98190.18
2018-07-07T22:50:26.010Z,98189.50
2018-07-07T22:52:54.659Z,98188.54
2018-07-07T22:55:23.280Z,98187.87
2018-07-07T22:57:52.576Z,98189.03
2018-07-07T23:00:21.364Z,98188.16
2018-07-07T23:02:50.749Z,98185.55
2018-07-07T23:05:20.185Z,98189.66
2018-07-07T23:07:50.081Z,98191.61
2018-07-07T23:10:18.724Z,98183.52
2018-07-07T23:12:47.501Z,98185.61
2018-07-07T23:15:16.893Z,98189.56
2018-07-07T23:17:45.627Z,98181.86
2018-07-07T23:20:14.260Z,98182.89
2018-07-07T23:22:55.945Z,98184.10
2018-07-07T23:25:24.742Z,98182.16
2018-07-07T23:27:53.526Z,98185.01
2018-07-07T23:30:22.368Z,98184.67
2018-07-07T23:32:51.686Z,98187.49
2018-07-07T23:35:20.357Z,98190.58
2018-07-07T23:37:49.066Z,98192.55
2018-07-07T23:40:17.822Z,98189.70
2018-07-07T23:42:46.406Z,98183.94
2018-07-07T23:45:15.205Z,98189.52
2018-07-07T23:47:45.328Z,98188.61
2018-07-07T23:50:13.902Z,98193.50
2018-07-07T23:52:43.367Z,98184.73
2018-07-07T23:55:12.895Z,98184.66
2018-07-07T23:57:41.580Z,98183.73
